Terminal Aerodrome Forecast
Issued by NWS

Home | Current Version | Previous Version | Text Only | Print | Product List | Glossary On
Versions: 1 2 3 4 5 6 7 8 9 10 11 12 13
820
FTUS41 KCLE 281733
TAFFDY
TAF
KFDY 281733Z 2818/2918 16010KT P6SM SCT120 OVC200
     FM282100 12008KT P6SM VCSH OVC090
     FM290200 11006KT 4SM -SHRA OVC010
     FM290700 VRB05KT 4SM -RA BR OVC008=

USA.gov is the U.S. government's official web portal to all federal, state and local government web resources and services.